Time;durP1;ratioP1;P1;durP2;ratioP2;P2;SDS_P1;SDS_P2;PMS_P1;PMS_P2;Temp;Humidity;BMP_temperature;BMP_pressure;BME280_temperature;BME280_humidity;BME280_pressure;Samples;Min_cycle;Max_cycle;Signal;HPM_P1;HPM_P2
2021/08/16 00:00:53;;;;;;;9.58;8.15;;;;;;;19.79;73.15;97530.11;1764256;81;21078;-83
2021/08/16 00:03:20;;;;;;;11.73;9.38;;;;;;;19.75;73.21;97523.25;1792145;80;20956;-83
2021/08/16 00:05:46;;;;;;;10.40;8.88;;;;;;;19.72;73.89;97520.81;1792068;80;21019;-84
2021/08/16 00:08:13;;;;;;;12.37;8.80;;;;;;;19.71;73.33;97519.06;1795349;80;21520;-84
2021/08/16 00:10:39;;;;;;;9.68;8.55;;;;;;;19.69;73.75;97519.69;1795644;80;20992;-84
2021/08/16 00:13:06;;;;;;;11.00;8.98;;;;;;;19.63;73.70;97515.61;1795718;80;21024;-84
2021/08/16 00:15:34;;;;;;;10.45;8.13;;;;;;;19.59;73.74;97518.19;1795452;80;20996;-84
2021/08/16 00:18:02;;;;;;;11.38;8.38;;;;;;;19.53;74.18;97514.11;1795562;80;21425;-84
2021/08/16 00:20:30;;;;;;;11.12;8.98;;;;;;;19.50;73.90;97512.52;1795739;80;20976;-84
2021/08/16 00:22:57;;;;;;;13.05;9.33;;;;;;;19.49;73.88;97512.14;1794158;80;20976;-84
2021/08/16 00:25:24;;;;;;;11.00;9.60;;;;;;;19.43;74.00;97513.92;1822203;79;20970;-84
2021/08/16 00:27:51;;;;;;;11.12;9.23;;;;;;;19.39;74.12;97512.45;1796876;79;21447;-84
2021/08/16 00:30:18;;;;;;;10.60;9.23;;;;;;;19.35;74.65;97514.98;1822388;79;21446;-84
2021/08/16 00:32:45;;;;;;;10.05;9.05;;;;;;;19.30;74.50;97519.84;1822628;79;20962;-84
2021/08/16 00:35:11;;;;;;;9.98;8.85;;;;;;;19.29;74.61;97521.66;1778954;80;20973;-84
2021/08/16 00:37:38;;;;;;;10.88;9.00;;;;;;;19.30;74.48;97516.66;1774014;79;21440;-84
2021/08/16 00:40:06;;;;;;;10.13;8.80;;;;;;;19.30;75.17;97511.28;1774628;81;21023;-84
2021/08/16 00:42:33;;;;;;;11.00;8.58;;;;;;;19.31;75.57;97517.02;1790217;80;21550;-84
2021/08/16 00:45:01;;;;;;;10.48;9.15;;;;;;;19.32;75.49;97512.52;1790286;80;21025;-84
2021/08/16 00:47:28;;;;;;;11.22;8.68;;;;;;;19.32;76.12;97516.55;1790342;80;21002;-85
2021/08/16 00:49:56;;;;;;;10.98;8.73;;;;;;;19.29;75.92;97516.29;1790179;80;21048;-84
2021/08/16 00:52:24;;;;;;;10.28;8.23;;;;;;;19.36;75.94;97512.67;1790313;80;21442;-85
2021/08/16 00:54:52;;;;;;;10.23;8.63;;;;;;;19.38;75.89;97509.37;1790235;80;21594;-84
2021/08/16 00:57:19;;;;;;;11.43;8.43;;;;;;;19.36;76.34;97512.16;1790155;80;21478;-83
2021/08/16 00:59:46;;;;;;;11.20;8.40;;;;;;;19.32;76.33;97506.67;1790462;80;20997;-84
2021/08/16 01:02:12;;;;;;;13.08;8.08;;;;;;;19.38;76.25;97516.09;1790246;80;21014;-84
2021/08/16 01:04:39;;;;;;;9.73;8.13;;;;;;;19.43;75.94;97507.70;1790033;79;21056;-83
2021/08/16 01:07:06;;;;;;;10.20;8.00;;;;;;;19.44;75.91;97508.94;1774348;81;21441;-84
2021/08/16 01:09:34;;;;;;;12.25;8.40;;;;;;;19.44;75.98;97504.91;1774514;81;20981;-84
2021/08/16 01:12:00;;;;;;;10.82;8.30;;;;;;;19.41;76.01;97502.44;1776451;81;20983;-83
2021/08/16 01:14:27;;;;;;;8.93;7.95;;;;;;;19.33;75.76;97502.14;1808140;79;21393;-84
2021/08/16 01:16:53;;;;;;;9.78;8.40;;;;;;;19.30;75.72;97503.73;1808354;79;21063;-84
2021/08/16 01:19:22;;;;;;;11.33;8.93;;;;;;;19.24;75.80;97503.20;1808243;79;20980;-84
2021/08/16 01:21:49;;;;;;;13.35;9.70;;;;;;;19.19;75.73;97497.78;1808099;79;21007;-84
2021/08/16 01:24:18;;;;;;;9.78;8.60;;;;;;;19.14;75.68;97499.45;1808012;79;20995;-84
2021/08/16 01:26:44;;;;;;;11.00;9.03;;;;;;;19.08;77.06;97495.41;1808158;79;20952;-84
2021/08/16 01:29:23;;;;;;;15.20;9.25;;;;;;;19.09;75.96;97496.23;1808214;79;21055;-84
2021/08/16 01:31:50;;;;;;;10.25;8.58;;;;;;;19.04;75.57;97495.69;1808047;79;20971;-84
2021/08/16 01:34:17;;;;;;;10.55;8.85;;;;;;;18.97;75.67;97492.58;1803981;79;20956;-84
2021/08/16 01:36:44;;;;;;;9.80;8.75;;;;;;;18.94;75.81;97491.48;1776554;81;21367;-84
2021/08/16 01:39:11;;;;;;;11.50;8.65;;;;;;;18.92;75.79;97494.74;1776358;81;21001;-85
2021/08/16 01:41:38;;;;;;;10.78;9.68;;;;;;;18.91;75.84;97490.34;1776780;81;20951;-84
2021/08/16 01:44:06;;;;;;;9.80;8.80;;;;;;;18.86;75.94;97479.45;1776550;81;20959;-85
2021/08/16 01:46:33;;;;;;;11.03;8.88;;;;;;;18.81;76.15;97481.61;1776364;81;20983;-84
2021/08/16 01:49:00;;;;;;;12.50;9.35;;;;;;;18.72;76.32;97473.74;1776448;81;21443;-84
2021/08/16 01:51:26;;;;;;;11.18;9.25;;;;;;;18.65;76.32;97475.16;1776518;81;21014;-84
2021/08/16 01:53:53;;;;;;;12.50;9.73;;;;;;;18.61;76.57;97479.03;1776401;81;20951;-84
2021/08/16 01:56:20;;;;;;;13.55;9.53;;;;;;;18.55;76.86;97482.12;1776385;81;21416;-84
2021/08/16 01:58:46;;;;;;;11.30;9.43;;;;;;;18.49;76.87;97480.75;1776447;81;20990;-84
2021/08/16 02:01:13;;;;;;;12.98;9.25;;;;;;;18.46;77.00;97482.30;1776707;81;20999;-84
2021/08/16 02:03:40;;;;;;;16.17;9.85;;;;;;;18.41;77.23;97475.92;1774531;81;20970;-84
2021/08/16 02:06:06;;;;;;;12.10;9.40;;;;;;;18.39;77.31;97477.00;1789990;80;20970;-84
2021/08/16 02:08:33;;;;;;;11.48;9.08;;;;;;;18.39;77.47;97479.69;1790277;80;20985;-84
2021/08/16 02:11:00;;;;;;;14.23;9.60;;;;;;;18.35;77.34;97480.36;1790548;80;21470;-84
2021/08/16 02:13:26;;;;;;;12.88;10.40;;;;;;;18.34;77.80;97489.38;1790150;80;21001;-84
2021/08/16 02:15:53;;;;;;;10.48;9.38;;;;;;;18.32;78.84;97490.81;1774334;81;20971;-84
2021/08/16 02:18:19;;;;;;;9.68;8.63;;;;;;;18.36;77.84;97483.91;1776649;81;21058;-84
2021/08/16 02:20:46;;;;;;;10.43;8.83;;;;;;;18.38;77.75;97483.30;1774490;81;21115;-84
2021/08/16 02:23:13;;;;;;;11.35;8.40;;;;;;;18.37;78.00;97491.86;1779491;80;21030;-83
2021/08/16 02:25:39;;;;;;;11.25;8.58;;;;;;;18.38;78.49;97490.88;1776428;81;21475;-84
2021/08/16 02:28:06;;;;;;;11.57;8.60;;;;;;;18.39;78.36;97497.12;1776318;81;21383;-84
2021/08/16 02:30:33;;;;;;;10.48;8.73;;;;;;;18.41;78.36;97489.81;1776433;81;21381;-84
2021/08/16 02:32:59;;;;;;;10.95;8.55;;;;;;;18.46;78.31;97496.58;1776318;81;21046;-83
2021/08/16 02:35:26;;;;;;;11.93;7.95;;;;;;;18.48;78.31;97504.53;1754412;79;21472;-84
2021/08/16 02:37:53;;;;;;;9.83;8.25;;;;;;;18.49;78.30;97495.51;1767372;81;21061;-84
2021/08/16 02:40:19;;;;;;;12.45;8.98;;;;;;;18.51;78.44;97499.44;1743916;81;21046;-84
2021/08/16 02:42:46;;;;;;;9.40;7.85;;;;;;;18.49;78.24;97488.80;1767240;81;21071;-84
2021/08/16 02:45:13;;;;;;;9.58;8.58;;;;;;;18.51;78.61;97492.22;1743645;82;21019;-84
2021/08/16 02:47:40;;;;;;;9.93;8.35;;;;;;;18.53;78.62;97492.98;1744038;82;20995;-84
2021/08/16 02:50:07;;;;;;;13.78;9.40;;;;;;;18.53;78.67;97489.44;1767337;81;21008;-84
2021/08/16 02:52:34;;;;;;;10.08;9.08;;;;;;;18.53;78.73;97489.44;1743848;82;20963;-84
2021/08/16 02:55:02;;;;;;;12.23;9.13;;;;;;;18.49;78.49;97491.95;1743968;82;21542;-84
2021/08/16 02:57:30;;;;;;;9.50;8.43;;;;;;;18.44;78.41;97491.79;1767384;81;21651;-84
2021/08/16 02:59:57;;;;;;;12.47;9.25;;;;;;;18.42;78.39;97484.34;1767385;81;21004;-84
2021/08/16 03:02:24;;;;;;;13.20;9.23;;;;;;;18.39;78.24;97495.28;1767368;81;20972;-85
2021/08/16 03:04:52;;;;;;;11.38;9.73;;;;;;;18.34;78.12;97496.95;1759234;81;21417;-84
2021/08/16 03:07:19;;;;;;;13.68;9.98;;;;;;;18.30;78.14;97486.53;1782924;79;20988;-84
2021/08/16 03:09:46;;;;;;;11.90;9.88;;;;;;;18.24;78.23;97493.20;1743785;82;21046;-85
2021/08/16 03:12:12;;;;;;;10.93;9.48;;;;;;;18.17;78.31;97493.23;1727055;82;20991;-84
2021/08/16 03:14:39;;;;;;;15.08;9.75;;;;;;;18.10;78.32;97489.27;1767347;81;21008;-84
2021/08/16 03:17:06;;;;;;;10.95;9.25;;;;;;;18.10;78.37;97491.45;1743738;82;21530;-84
2021/08/16 03:19:33;;;;;;;13.43;10.25;;;;;;;18.08;78.32;97493.38;1767453;81;20995;-84
2021/08/16 03:21:59;;;;;;;12.88;9.78;;;;;;;18.05;78.33;97493.08;1770913;80;20978;-85
2021/08/16 03:24:26;;;;;;;11.05;9.25;;;;;;;18.05;78.20;97493.55;1762782;81;21003;-84
2021/08/16 03:26:53;;;;;;;13.53;9.83;;;;;;;18.03;78.23;97496.33;1790297;80;21445;-84
2021/08/16 03:29:20;;;;;;;18.92;10.93;;;;;;;18.02;78.16;97495.13;1756970;80;21027;-85
2021/08/16 03:31:46;;;;;;;11.25;10.05;;;;;;;18.01;78.19;97493.37;1790573;80;21418;-85
2021/08/16 03:34:13;;;;;;;12.90;9.53;;;;;;;18.03;78.64;97494.99;1790688;80;20924;-84
2021/08/16 03:36:40;;;;;;;14.38;10.13;;;;;;;18.02;79.34;97492.44;1791974;80;21410;-84
2021/08/16 03:39:07;;;;;;;15.60;10.15;;;;;;;18.02;79.39;97497.80;1764188;81;20984;-84
2021/08/16 03:41:33;;;;;;;15.70;10.32;;;;;;;18.02;78.65;97494.63;1795905;80;21034;-83
2021/08/16 03:44:00;;;;;;;11.88;10.10;;;;;;;18.04;78.85;97493.19;1789991;80;21418;-84
2021/08/16 03:46:27;;;;;;;12.68;9.90;;;;;;;18.06;78.41;97485.41;1824058;79;21065;-84
2021/08/16 03:48:54;;;;;;;14.80;10.25;;;;;;;18.07;78.25;97487.16;1824407;79;20985;-84
2021/08/16 03:51:20;;;;;;;12.43;9.75;;;;;;;18.06;78.11;97488.59;1824347;78;20998;-85
2021/08/16 03:53:47;;;;;;;12.28;10.95;;;;;;;18.04;78.35;97490.03;1824295;79;20997;-83
2021/08/16 03:56:13;;;;;;;13.28;10.93;;;;;;;18.06;78.37;97491.27;1824376;78;20951;-83
2021/08/16 03:58:41;;;;;;;13.10;9.85;;;;;;;18.07;78.76;97497.88;1823995;79;21526;-83
2021/08/16 04:01:12;;;;;;;11.57;10.38;;;;;;;18.09;78.51;97490.23;1824461;79;21372;-84
2021/08/16 04:03:41;;;;;;;11.03;9.40;;;;;;;18.11;78.28;97501.70;1820815;78;21069;-83
2021/08/16 04:06:07;;;;;;;11.97;9.58;;;;;;;18.15;78.46;97504.05;1787528;80;20953;-83
2021/08/16 04:08:38;;;;;;;12.80;9.55;;;;;;;18.20;78.31;97501.08;1762771;81;21385;-83
2021/08/16 04:11:03;;;;;;;11.43;9.48;;;;;;;18.25;78.46;97509.66;1790124;80;21004;-83
2021/08/16 04:13:29;;;;;;;12.37;8.98;;;;;;;18.31;78.86;97494.47;1790079;80;21016;-84
2021/08/16 04:15:56;;;;;;;14.87;9.23;;;;;;;18.36;78.67;97493.30;1790294;80;21016;-84
2021/08/16 04:18:22;;;;;;;12.20;8.50;;;;;;;18.43;78.62;97491.89;1790424;80;20996;-83
2021/08/16 04:20:49;;;;;;;11.35;8.93;;;;;;;18.55;78.61;97493.73;1790437;80;20941;-84
2021/08/16 04:23:15;;;;;;;12.88;9.03;;;;;;;18.63;78.47;97485.63;1790158;80;21037;-84
2021/08/16 04:25:42;;;;;;;11.65;8.60;;;;;;;18.72;78.39;97484.95;1790324;80;21020;-83
2021/08/16 04:28:09;;;;;;;12.15;9.10;;;;;;;18.80;78.04;97486.61;1790301;80;20973;-84
2021/08/16 04:30:35;;;;;;;10.60;8.58;;;;;;;18.91;77.97;97487.19;1790284;80;21047;-84
2021/08/16 04:33:02;;;;;;;11.88;9.50;;;;;;;19.00;77.80;97481.63;1790404;80;21039;-84
2021/08/16 04:35:28;;;;;;;9.85;8.85;;;;;;;19.09;77.58;97488.19;1791134;80;21461;-84
2021/08/16 04:37:55;;;;;;;11.57;9.10;;;;;;;19.14;77.35;97484.67;1791847;80;21023;-83
2021/08/16 04:40:21;;;;;;;14.47;10.08;;;;;;;19.18;77.05;97498.77;1791861;80;21031;-84
2021/08/16 04:42:48;;;;;;;10.68;9.58;;;;;;;19.20;76.84;97516.95;1764166;81;21032;-84
2021/08/16 04:45:15;;;;;;;16.87;10.13;;;;;;;19.25;77.04;97620.91;1791810;80;21397;-83
2021/08/16 04:47:45;;;;;;;14.80;11.38;;;;;;;19.16;77.54;97561.13;1764158;81;20996;-84
2021/08/16 04:50:15;;;;;;;13.72;11.18;;;;;;;19.18;77.06;97567.27;1794422;80;21062;-84
2021/08/16 04:52:42;;;;;;;17.12;11.40;;;;;;;19.24;77.58;97585.61;1764265;81;21063;-84
2021/08/16 04:55:09;;;;;;;15.10;11.73;;;;;;;19.32;78.20;97564.91;1794758;80;20956;-85
2021/08/16 04:57:38;;;;;;;15.90;9.63;;;;;;;19.40;77.02;97567.91;1736357;81;20980;-85
2021/08/16 05:00:10;;;;;;;11.63;8.83;;;;;;;19.55;76.52;97586.56;1791919;80;20976;-83
2021/08/16 05:02:37;;;;;;;10.48;8.45;;;;;;;19.69;76.08;97587.77;1764278;81;21074;-83
2021/08/16 05:05:10;;;;;;;11.63;8.65;;;;;;;19.84;75.35;97586.25;1795218;79;20958;-84
2021/08/16 05:07:38;;;;;;;13.70;8.60;;;;;;;19.98;75.00;97602.73;1763095;81;21342;-83
2021/08/16 05:10:07;;;;;;;11.33;8.40;;;;;;;20.11;74.69;97604.00;1790233;80;21406;-84
2021/08/16 05:12:35;;;;;;;11.38;8.95;;;;;;;20.19;74.50;97605.64;1790536;80;20968;-84
2021/08/16 05:15:03;;;;;;;14.95;8.78;;;;;;;20.27;73.92;97603.71;1790374;80;21472;-84
2021/08/16 05:17:32;;;;;;;11.53;8.70;;;;;;;20.30;73.67;97612.88;1790245;80;20984;-84
2021/08/16 05:20:00;;;;;;;15.40;9.08;;;;;;;20.34;73.45;97614.36;1790298;80;20981;-84
2021/08/16 05:22:27;;;;;;;11.55;8.68;;;;;;;20.36;73.04;97615.13;1789729;80;21016;-84
2021/08/16 05:24:54;;;;;;;13.38;8.63;;;;;;;20.40;72.87;97619.78;1785778;80;20984;-84
2021/08/16 05:27:20;;;;;;;11.33;8.08;;;;;;;20.42;72.41;97609.27;1785770;80;21039;-84
2021/08/16 05:29:47;;;;;;;9.65;7.72;;;;;;;20.46;72.07;97617.11;1785752;80;21051;-84
2021/08/16 05:32:16;;;;;;;9.75;7.85;;;;;;;20.49;70.86;97626.28;1785768;80;21442;-84
2021/08/16 05:34:44;;;;;;;9.98;8.30;;;;;;;20.56;71.17;97622.16;1786314;80;20995;-84
2021/08/16 05:37:10;;;;;;;13.13;8.18;;;;;;;20.62;70.84;97617.64;1787447;80;20985;-85
2021/08/16 05:39:37;;;;;;;12.05;8.35;;;;;;;20.68;70.14;97622.55;1787394;80;21067;-84
2021/08/16 05:42:04;;;;;;;12.43;8.13;;;;;;;20.75;69.89;97620.23;1787476;80;20960;-84
2021/08/16 05:44:31;;;;;;;17.48;8.80;;;;;;;20.82;69.59;97609.85;1787325;80;21047;-84
2021/08/16 05:46:57;;;;;;;12.03;8.90;;;;;;;20.91;69.55;97617.72;1787556;80;20983;-84
2021/08/16 05:49:23;;;;;;;10.80;8.45;;;;;;;20.97;69.34;97614.06;1787478;80;21051;-84
2021/08/16 05:51:50;;;;;;;12.75;8.00;;;;;;;21.06;68.30;97611.12;1789266;80;20960;-84
2021/08/16 05:54:16;;;;;;;13.55;8.33;;;;;;;21.16;67.69;97611.27;1787776;80;21012;-85
2021/08/16 05:56:43;;;;;;;10.75;8.08;;;;;;;21.27;68.32;97605.51;1787692;80;20956;-84
2021/08/16 05:59:09;;;;;;;11.90;8.40;;;;;;;21.39;68.30;97609.05;1787315;80;20984;-84
2021/08/16 06:01:39;;;;;;;13.00;8.60;;;;;;;21.50;68.04;97600.47;1787536;80;21007;-83
2021/08/16 06:04:06;;;;;;;11.85;8.05;;;;;;;21.61;67.82;97594.22;1787186;79;21500;-83
2021/08/16 06:06:35;;;;;;;8.40;7.60;;;;;;;21.71;67.87;97591.64;1762536;80;20968;-84
2021/08/16 06:09:04;;;;;;;9.18;7.62;;;;;;;21.83;67.50;97591.13;1787386;80;21062;-84
2021/08/16 06:11:31;;;;;;;11.05;8.78;;;;;;;21.93;67.67;97602.02;1787662;80;20980;-84
2021/08/16 06:13:58;;;;;;;13.50;7.97;;;;;;;22.04;66.68;97597.06;1787604;80;20967;-84
2021/08/16 06:16:25;;;;;;;12.43;8.05;;;;;;;22.13;67.05;97594.94;1787485;80;21421;-84
2021/08/16 06:18:51;;;;;;;14.68;7.85;;;;;;;22.23;67.06;97597.73;1787638;80;21055;-84
2021/08/16 06:21:19;;;;;;;11.78;8.10;;;;;;;22.31;66.85;97591.69;1787617;80;20941;-85
2021/08/16 06:23:46;;;;;;;11.43;7.75;;;;;;;22.40;66.67;97588.70;1789664;80;20992;-83
2021/08/16 06:26:13;;;;;;;11.20;8.13;;;;;;;22.50;66.70;97586.08;1792134;80;20987;-84
2021/08/16 06:28:40;;;;;;;10.58;7.90;;;;;;;22.61;66.29;97583.82;1792166;80;21027;-84
2021/08/16 06:31:08;;;;;;;9.38;7.40;;;;;;;22.70;66.21;97578.98;1792133;80;21015;-84
2021/08/16 06:33:40;;;;;;;10.43;7.83;;;;;;;22.79;65.80;97586.29;1792028;80;20972;-84
2021/08/16 06:36:07;;;;;;;12.40;8.10;;;;;;;22.87;65.73;97581.56;1790363;79;21004;-84
2021/08/16 06:38:34;;;;;;;10.55;7.70;;;;;;;22.94;65.78;97572.44;1790609;80;20957;-84
2021/08/16 06:41:01;;;;;;;8.68;7.80;;;;;;;23.00;65.83;97573.23;1790403;80;20996;-84
2021/08/16 06:43:31;;;;;;;10.80;7.65;;;;;;;23.11;65.69;97579.05;1790340;80;21394;-85
2021/08/16 06:45:57;;;;;;;10.32;8.45;;;;;;;23.23;65.62;97574.90;1790459;80;20964;-84
2021/08/16 06:48:24;;;;;;;11.93;8.18;;;;;;;23.32;64.92;97570.03;1787467;80;21362;-85
2021/08/16 06:50:50;;;;;;;8.85;8.00;;;;;;;23.40;65.23;97572.95;1790436;80;21059;-85
2021/08/16 06:53:17;;;;;;;10.40;8.20;;;;;;;23.49;64.94;97573.95;1790495;80;20972;-84
2021/08/16 06:55:45;;;;;;;12.75;7.95;;;;;;;23.56;64.17;97579.19;1790317;80;20936;-84
2021/08/16 06:58:12;;;;;;;11.70;7.67;;;;;;;23.63;63.82;97578.63;1790405;80;21008;-85
2021/08/16 07:00:46;;;;;;;10.38;8.65;;;;;;;23.68;63.88;97565.05;1790274;80;21367;-85
2021/08/16 07:03:14;;;;;;;11.53;7.92;;;;;;;23.72;63.95;97564.27;1790400;80;21425;-85
2021/08/16 07:05:45;;;;;;;10.43;8.60;;;;;;;23.86;64.27;97562.52;1791585;80;20968;-85
2021/08/16 07:08:13;;;;;;;14.45;11.10;;;;;;;23.86;64.27;97562.52;1791893;80;20955;-85
2021/08/16 07:10:40;;;;;;;16.05;13.38;;;;;;;23.96;63.37;97558.97;1764431;80;21027;-84
2021/08/16 07:13:09;;;;;;;10.98;8.30;;;;;;;24.01;63.29;97563.45;1795023;80;21025;-84
2021/08/16 07:15:36;;;;;;;11.83;7.85;;;;;;;24.05;62.40;97557.25;1792081;80;21067;-84
2021/08/16 07:18:05;;;;;;;12.50;8.13;;;;;;;24.06;62.27;97555.76;1764294;81;21016;-84
2021/08/16 07:20:32;;;;;;;10.25;7.78;;;;;;;24.06;62.27;97555.76;1792090;80;21015;-85
2021/08/16 07:22:58;;;;;;;9.18;7.72;;;;;;;24.16;62.24;97566.61;1760723;81;21040;-84
2021/08/16 07:25:25;;;;;;;10.08;7.80;;;;;;;24.19;61.63;97566.81;1760243;81;21425;-84
2021/08/16 07:27:52;;;;;;;9.13;7.55;;;;;;;24.25;61.25;97571.69;1741473;82;21468;-84
2021/08/16 07:30:18;;;;;;;10.75;7.97;;;;;;;24.29;61.40;97568.19;1760014;81;21006;-84
2021/08/16 07:32:45;;;;;;;11.10;7.53;;;;;;;24.35;61.33;97566.25;1726736;82;20953;-84
2021/08/16 07:35:12;;;;;;;12.50;7.62;;;;;;;24.39;61.29;97559.06;1755692;81;20978;-84
2021/08/16 07:37:38;;;;;;;9.00;7.67;;;;;;;24.44;60.60;97564.03;1741139;82;21030;-83
2021/08/16 07:40:06;;;;;;;10.00;7.80;;;;;;;24.45;60.10;97554.91;1722488;83;21415;-83
2021/08/16 07:42:33;;;;;;;11.15;8.20;;;;;;;24.56;60.41;97556.61;1722206;83;21041;-83
2021/08/16 07:45:00;;;;;;;17.82;14.70;;;;;;;24.64;60.45;97551.81;1722225;83;21020;-84
2021/08/16 07:47:26;;;;;;;23.00;19.15;;;;;;;24.73;60.60;97552.78;1741330;82;21005;-84
2021/08/16 07:49:53;;;;;;;9.95;7.15;;;;;;;24.81;60.34;97554.27;1741318;82;20992;-85
2021/08/16 07:52:19;;;;;;;9.93;7.78;;;;;;;24.83;58.84;97551.45;1753580;82;21065;-85
2021/08/16 07:54:46;;;;;;;8.78;7.53;;;;;;;24.88;58.98;97551.86;1741899;82;21033;-84
2021/08/16 07:57:15;;;;;;;8.83;7.22;;;;;;;24.96;59.02;97555.18;1722154;83;20981;-85
2021/08/16 07:59:41;;;;;;;9.08;7.78;;;;;;;25.03;58.85;97556.28;1722251;83;21048;-85
2021/08/16 08:02:08;;;;;;;8.83;7.28;;;;;;;25.10;58.72;97559.26;1722445;83;21016;-85
2021/08/16 08:04:34;;;;;;;11.80;7.70;;;;;;;25.10;58.72;97559.26;1732954;82;21446;-85
2021/08/16 08:07:01;;;;;;;13.45;8.00;;;;;;;25.14;58.75;97553.41;1734687;81;21003;-85
2021/08/16 08:09:31;;;;;;;9.83;7.55;;;;;;;25.21;58.61;97549.59;1741446;82;21015;-84
2021/08/16 08:11:59;;;;;;;8.55;7.72;;;;;;;25.29;58.68;97544.25;1760308;81;21023;-85
2021/08/16 08:14:26;;;;;;;10.38;7.85;;;;;;;25.34;58.37;97532.98;1741478;82;21036;-84
2021/08/16 08:16:53;;;;;;;14.18;7.70;;;;;;;25.40;58.48;97534.20;1760138;81;21047;-86
2021/08/16 08:19:20;;;;;;;9.50;7.87;;;;;;;25.46;58.22;97535.47;1741420;82;20988;-86
2021/08/16 08:21:46;;;;;;;9.33;7.40;;;;;;;25.51;57.98;97531.31;1760122;81;21524;-85
2021/08/16 08:24:13;;;;;;;8.53;7.60;;;;;;;25.56;56.92;97530.87;1768845;80;20991;-86
2021/08/16 08:26:39;;;;;;;11.25;7.30;;;;;;;25.66;57.38;97532.18;1791923;80;20932;-85
2021/08/16 08:29:06;;;;;;;10.45;7.35;;;;;;;25.72;56.96;97527.98;1764234;81;21074;-85
2021/08/16 08:31:33;;;;;;;8.13;7.33;;;;;;;25.80;57.12;97522.16;1791914;80;20940;-86
2021/08/16 08:33:59;;;;;;;10.00;7.33;;;;;;;25.88;56.59;97512.38;1772978;80;21426;-86
2021/08/16 08:36:26;;;;;;;10.25;8.05;;;;;;;25.92;56.32;97519.20;1779178;80;20995;-85
2021/08/16 08:38:53;;;;;;;9.25;7.47;;;;;;;26.00;56.18;97517.93;1791676;80;21012;-86
2021/08/16 08:41:22;;;;;;;12.00;7.72;;;;;;;26.09;55.08;97509.34;1763990;81;21052;-86
2021/08/16 08:43:51;;;;;;;9.73;7.67;;;;;;;26.20;55.66;97519.12;1791825;80;21007;-85
2021/08/16 08:46:19;;;;;;;8.98;7.70;;;;;;;26.30;55.21;97516.33;1764006;81;21004;-86
2021/08/16 08:48:46;;;;;;;8.60;6.95;;;;;;;26.38;54.94;97518.25;1791852;80;20948;-86
2021/08/16 08:51:14;;;;;;;11.45;7.87;;;;;;;26.45;54.52;97510.66;1764412;81;21417;-86
2021/08/16 08:53:41;;;;;;;8.83;7.65;;;;;;;26.53;54.09;97513.94;1791873;80;21488;-86
2021/08/16 08:56:09;;;;;;;10.80;8.28;;;;;;;26.60;53.09;97508.73;1764515;80;21441;-85
2021/08/16 08:58:36;;;;;;;10.45;7.55;;;;;;;26.66;53.14;97508.61;1760777;81;20990;-85
2021/08/16 09:01:02;;;;;;;13.80;8.43;;;;;;;26.73;52.75;97496.93;1734104;83;20982;-86
2021/08/16 09:03:29;;;;;;;8.45;7.58;;;;;;;26.83;52.45;97493.25;1733934;83;20998;-86
2021/08/16 09:05:58;;;;;;;9.33;7.95;;;;;;;26.91;52.54;97489.72;1751929;80;20941;-85
2021/08/16 09:08:35;;;;;;;9.43;7.37;;;;;;;26.98;52.21;97490.78;1792064;80;21023;-85
2021/08/16 09:11:14;;;;;;;10.78;8.05;;;;;;;27.06;52.39;97488.64;1764500;81;21035;-84
2021/08/16 09:13:57;;;;;;;10.80;7.50;;;;;;;27.13;52.34;97485.59;1791861;80;21095;-85
2021/08/16 09:16:33;;;;;;;13.55;8.23;;;;;;;27.16;52.63;97479.84;1764486;81;21425;-84
2021/08/16 09:19:17;;;;;;;12.85;8.30;;;;;;;27.24;52.54;97473.05;1791949;80;21054;-85
2021/08/16 09:22:05;;;;;;;9.45;8.53;;;;;;;27.33;51.64;97469.00;1764449;81;21093;-85
2021/08/16 09:24:34;;;;;;;10.65;7.75;;;;;;;27.46;51.93;97475.33;1791394;79;21087;-84
2021/08/16 09:27:13;;;;;;;8.28;7.45;;;;;;;27.54;51.13;97468.02;1765541;80;21056;-85
2021/08/16 09:29:50;;;;;;;11.22;8.10;;;;;;;27.63;49.85;97466.22;1790632;80;21151;-85
2021/08/16 09:32:17;;;;;;;11.03;8.23;;;;;;;27.73;50.49;97467.41;1764608;81;21496;-85
2021/08/16 09:34:49;;;;;;;14.05;7.62;;;;;;;27.83;49.67;97460.46;1791882;80;21076;-85
2021/08/16 09:37:25;;;;;;;13.38;8.03;;;;;;;27.92;49.58;97453.14;1764201;81;20980;-86
2021/08/16 09:40:06;;;;;;;12.15;7.70;;;;;;;27.97;49.78;97450.75;1792189;80;21092;-85
2021/08/16 09:42:47;;;;;;;13.30;7.67;;;;;;;28.01;50.00;97447.17;1764260;81;21438;-85
2021/08/16 09:45:32;;;;;;;12.73;8.03;;;;;;;28.07;49.91;97439.70;1793278;79;20991;-85
2021/08/16 09:48:03;;;;;;;11.70;7.78;;;;;;;28.14;49.84;97439.87;1792035;80;21032;-85
2021/08/16 09:50:44;;;;;;;9.80;7.90;;;;;;;28.17;49.08;97432.20;1764139;81;21036;-85
2021/08/16 09:53:13;;;;;;;10.50;8.38;;;;;;;28.16;47.82;97424.20;1791871;80;21038;-85
2021/08/16 09:55:43;;;;;;;13.18;7.72;;;;;;;28.17;48.38;97424.03;1763304;81;21377;-82
2021/08/16 09:58:14;;;;;;;11.63;8.10;;;;;;;28.24;48.66;97417.42;1794097;79;21038;-87
2021/08/16 10:00:45;;;;;;;12.15;7.70;;;;;;;28.33;48.97;97419.11;1759158;81;21011;-87
2021/08/16 10:03:12;;;;;;;9.38;7.92;;;;;;;28.40;48.92;97411.59;1777417;79;21015;-85
2021/08/16 10:05:42;;;;;;;11.40;7.50;;;;;;;28.48;48.35;97410.19;1805799;79;21006;-88
2021/08/16 10:08:17;;;;;;;11.25;8.00;;;;;;;28.59;48.52;97404.38;1801182;79;21362;-88
2021/08/16 10:10:43;;;;;;;9.58;7.65;;;;;;;28.70;48.69;97400.94;1805653;78;21106;-85
2021/08/16 10:13:11;;;;;;;10.63;7.83;;;;;;;28.76;48.43;97399.39;1806213;78;21041;-86
2021/08/16 10:15:45;;;;;;;12.33;7.97;;;;;;;28.81;48.04;97400.54;1814129;79;21014;-85
2021/08/16 10:18:18;;;;;;;10.43;8.50;;;;;;;28.91;48.25;97394.92;1803380;79;20945;-84
2021/08/16 10:20:46;;;;;;;11.53;8.68;;;;;;;28.99;47.95;97392.13;1796529;79;20988;-84
2021/08/16 10:23:23;;;;;;;10.85;8.85;;;;;;;29.07;47.81;97381.69;1788518;79;20924;-84
2021/08/16 10:25:53;;;;;;;9.43;8.05;;;;;;;29.12;47.67;97381.17;1757328;80;21015;-86
2021/08/16 10:28:33;;;;;;;10.10;7.67;;;;;;;29.21;47.60;97377.87;1784345;80;21083;-86
2021/08/16 10:31:03;;;;;;;12.43;8.48;;;;;;;29.32;47.18;97376.11;1782650;79;21077;-85
2021/08/16 10:33:30;;;;;;;10.43;8.15;;;;;;;29.43;47.35;97376.19;1787719;79;21409;-87
2021/08/16 10:35:58;;;;;;;10.75;7.50;;;;;;;29.53;46.67;97369.16;1778776;80;20991;-85
2021/08/16 10:38:25;;;;;;;9.63;8.08;;;;;;;29.60;46.55;97376.94;1772938;80;21480;-85
2021/08/16 10:40:57;;;;;;;13.10;8.35;;;;;;;29.72;46.77;97369.17;1781682;79;20960;-82
2021/08/16 10:43:33;;;;;;;9.03;7.70;;;;;;;29.90;46.33;97371.56;1784834;79;20960;-82
2021/08/16 10:46:00;;;;;;;13.38;7.62;;;;;;;30.18;46.09;97365.20;1784624;79;20929;-86
2021/08/16 10:48:32;;;;;;;12.93;8.13;;;;;;;31.05;45.41;97362.83;1783780;80;21012;-85
2021/08/16 10:51:11;;;;;;;10.60;7.85;;;;;;;32.25;43.82;97360.91;1780835;79;21406;-85
2021/08/16 10:53:52;;;;;;;10.70;7.40;;;;;;;33.37;39.34;97356.39;1779848;79;21037;-85
2021/08/16 10:56:22;;;;;;;11.45;7.97;;;;;;;34.32;39.48;97359.20;1784549;80;21011;-84
2021/08/16 10:58:52;;;;;;;11.70;7.90;;;;;;;35.19;36.96;97344.89;1792026;79;21018;-83
2021/08/16 11:01:34;;;;;;;11.70;7.95;;;;;;;35.91;35.93;97336.88;1795355;79;21578;-84
2021/08/16 11:04:04;;;;;;;8.58;7.47;;;;;;;36.54;35.26;97340.52;1796016;79;20987;-85
2021/08/16 11:06:32;;;;;;;11.75;8.28;;;;;;;37.13;33.60;97338.34;1784235;80;20979;-82
2021/08/16 11:09:01;;;;;;;14.65;8.08;;;;;;;37.57;33.63;97334.83;1754401;82;21413;-82
2021/08/16 11:11:30;;;;;;;13.68;10.18;;;;;;;38.06;32.02;97339.93;1781529;80;20971;-87
2021/08/16 11:14:11;;;;;;;8.78;7.58;;;;;;;38.19;32.16;97334.72;1772713;80;21082;-89
2021/08/16 11:16:52;;;;;;;9.08;8.18;;;;;;;38.74;31.53;97323.78;1775571;80;21022;-83
2021/08/16 11:19:21;;;;;;;12.20;8.85;;;;;;;39.24;30.25;97316.45;1769110;80;20983;-84
2021/08/16 11:22:00;;;;;;;8.98;7.37;;;;;;;39.53;29.36;97313.14;1768880;80;20937;-84
2021/08/16 11:24:34;;;;;;;13.10;7.28;;;;;;;39.69;28.19;97303.69;1792658;78;21540;-83
2021/08/16 11:27:09;;;;;;;8.58;6.67;;;;;;;39.87;28.60;97309.52;1775330;81;20994;-81
2021/08/16 11:29:37;;;;;;;12.00;7.87;;;;;;;40.31;28.20;97303.28;1791612;80;21011;-80
2021/08/16 11:32:06;;;;;;;9.50;7.05;;;;;;;40.68;27.89;97292.66;1751042;81;21397;-81